Time;durP1;ratioP1;P1;durP2;ratioP2;P2;SDS_P1;SDS_P2;PMS_P1;PMS_P2;Temp;Humidity;BMP_temperature;BMP_pressure;BME280_temperature;BME280_humidity;BME280_pressure;Samples;Min_cycle;Max_cycle;Signal;HPM_P1;HPM_P2
2022/05/11 00:02:00;;;;;;;14.60;13.50;;;17.40;98.80;;;;;;4992668;28;20524;-55
2022/05/11 00:04:26;;;;;;;13.50;12.50;;;17.40;99.10;;;;;;4991325;28;20563;-59
2022/05/11 00:06:51;;;;;;;14.00;12.97;;;17.30;99.10;;;;;;4986186;28;20192;-55
2022/05/11 00:09:17;;;;;;;14.43;13.33;;;17.30;99.10;;;;;;4992463;28;20186;-59
2022/05/11 00:11:44;;;;;;;13.50;12.40;;;17.30;99.10;;;;;;4990155;28;20272;-58
2022/05/11 00:14:11;;;;;;;15.03;13.90;;;17.40;99.30;;;;;;4991667;28;20785;-60
2022/05/11 00:16:37;;;;;;;14.70;13.60;;;17.30;99.10;;;;;;5006101;28;20450;-58
2022/05/11 00:19:03;;;;;;;13.90;12.90;;;17.30;99.30;;;;;;4986755;28;20442;-60
2022/05/11 00:21:30;;;;;;;13.50;12.50;;;17.30;99.10;;;;;;4992550;28;20189;-56
2022/05/11 00:23:55;;;;;;;13.93;12.93;;;17.30;99.20;;;;;;4990745;28;20484;-58
2022/05/11 00:26:21;;;;;;;13.67;12.67;;;17.30;99.30;;;;;;4991584;28;20437;-58
2022/05/11 00:28:46;;;;;;;14.60;13.50;;;17.30;99.30;;;;;;4990355;28;20188;-58
2022/05/11 00:31:12;;;;;;;13.63;12.60;;;17.30;99.40;;;;;;4992813;28;20182;-59
2022/05/11 00:33:38;;;;;;;13.87;12.80;;;17.30;99.50;;;;;;4988451;28;20653;-57
2022/05/11 00:36:09;;;;;;;13.83;12.83;;;17.20;99.60;;;;;;4991990;28;20261;-58
2022/05/11 00:38:35;;;;;;;14.50;13.50;;;17.20;99.60;;;;;;4987375;28;20443;-59
2022/05/11 00:41:01;;;;;;;14.70;13.60;;;17.20;99.60;;;;;;4991698;28;20459;-59
2022/05/11 00:43:35;;;;;;;14.43;13.43;;;17.20;99.70;;;;;;4991106;28;20227;-59
2022/05/11 00:46:21;;;;;;;14.13;13.13;;;17.20;99.60;;;;;;4977838;28;20185;-59
2022/05/11 00:51:39;;;;;;;14.10;13.00;;;17.20;99.70;;;;;;4983439;28;20464;-59
2022/05/11 00:54:06;;;;;;;14.60;13.50;;;17.10;99.90;;;;;;4985366;28;20438;-60
2022/05/11 00:56:35;;;;;;;14.53;13.40;;;17.10;99.90;;;;;;4989865;28;20472;-58
2022/05/11 00:59:12;;;;;;;15.30;14.00;;;17.00;99.90;;;;;;4988856;28;20592;-59
2022/05/11 01:01:39;;;;;;;15.10;14.00;;;16.90;99.90;;;;;;4992143;28;20426;-60
2022/05/11 01:04:12;;;;;;;15.57;14.30;;;16.80;99.90;;;;;;4982053;28;20437;-59
2022/05/11 01:06:39;;;;;;;15.03;14.03;;;16.80;99.90;;;;;;4987906;28;20457;-57
2022/05/11 01:09:06;;;;;;;15.73;14.50;;;16.70;99.90;;;;;;4986567;28;20436;-58
2022/05/11 01:11:36;;;;;;;15.50;14.40;;;16.60;99.90;;;;;;4988533;28;20900;-57
2022/05/11 01:14:03;;;;;;;14.80;13.77;;;16.60;99.90;;;;;;4987176;28;20582;-57
2022/05/11 01:16:29;;;;;;;16.03;14.53;;;16.60;99.90;;;;;;4976187;28;20440;-54
2022/05/11 01:18:58;;;;;;;15.47;14.27;;;16.50;99.90;;;;;;4989039;28;20439;-55
2022/05/11 01:21:35;;;;;;;15.43;14.30;;;16.40;99.90;;;;;;4989700;28;20438;-59
2022/05/11 01:24:09;;;;;;;14.50;13.30;;;16.40;99.90;;;;;;4991016;28;20476;-58
2022/05/11 01:26:34;;;;;;;15.70;14.13;;;16.40;99.90;;;;;;4988984;28;20447;-59
2022/05/11 01:29:01;;;;;;;14.97;13.87;;;16.30;99.90;;;;;;4973331;28;20437;-59
2022/05/11 01:31:26;;;;;;;15.10;14.00;;;16.20;99.90;;;;;;4987689;28;20323;-60
2022/05/11 01:33:52;;;;;;;15.50;14.30;;;16.10;99.90;;;;;;4988791;28;20538;-60
2022/05/11 01:36:30;;;;;;;15.63;14.20;;;16.00;99.90;;;;;;4990192;28;20197;-59
2022/05/11 01:38:59;;;;;;;14.53;13.43;;;16.00;99.90;;;;;;4980618;28;20634;-60
2022/05/11 01:41:25;;;;;;;15.20;14.00;;;15.90;99.90;;;;;;4981794;28;20436;-58
2022/05/11 01:43:51;;;;;;;15.80;14.67;;;15.90;99.90;;;;;;4985731;28;20467;-58
2022/05/11 01:46:18;;;;;;;15.80;14.60;;;15.90;99.90;;;;;;4982837;28;20192;-58
2022/05/11 01:48:43;;;;;;;15.83;14.53;;;16.00;99.90;;;;;;4990867;28;20436;-59
2022/05/11 01:51:11;;;;;;;15.80;14.57;;;15.90;99.90;;;;;;4985574;28;20447;-59
2022/05/11 01:53:36;;;;;;;15.40;14.10;;;15.80;99.90;;;;;;4988395;28;20278;-59
2022/05/11 01:56:03;;;;;;;15.40;14.10;;;15.70;99.90;;;;;;4987587;28;20594;-58
2022/05/11 01:58:29;;;;;;;15.60;14.40;;;15.70;99.90;;;;;;4988494;28;20186;-59
2022/05/11 02:00:55;;;;;;;16.10;14.80;;;15.60;99.90;;;;;;4988686;28;20450;-59
2022/05/11 02:03:20;;;;;;;17.47;16.00;;;15.60;99.90;;;;;;4988512;28;20270;-59
2022/05/11 02:08:36;;;;;;;16.67;15.37;;;15.50;99.90;;;;;;4981355;28;20220;-59
2022/05/11 02:11:02;;;;;;;17.10;15.80;;;15.40;99.90;;;;;;4988726;28;20436;-59
2022/05/11 02:13:28;;;;;;;16.93;15.63;;;15.40;99.90;;;;;;4987466;28;20902;-60
2022/05/11 02:15:54;;;;;;;16.40;15.00;;;15.40;99.90;;;;;;4980110;28;20486;-59
2022/05/11 02:18:19;;;;;;;16.07;14.77;;;15.30;99.90;;;;;;4981789;28;20440;-59
2022/05/11 02:20:45;;;;;;;15.60;14.30;;;15.20;99.90;;;;;;4990266;28;20909;-57
2022/05/11 02:23:19;;;;;;;17.10;15.80;;;15.20;99.90;;;;;;4987330;28;20772;-58
2022/05/11 02:25:46;;;;;;;16.63;15.30;;;15.10;99.90;;;;;;4991065;28;20231;-59
2022/05/11 02:28:12;;;;;;;16.30;14.70;;;15.10;99.90;;;;;;4988352;28;20871;-59
2022/05/11 02:30:39;;;;;;;15.73;14.53;;;15.20;99.90;;;;;;4984416;28;20439;-59
2022/05/11 02:33:06;;;;;;;17.20;15.80;;;15.10;99.90;;;;;;4985410;28;20440;-58
2022/05/11 02:35:31;;;;;;;16.60;15.20;;;15.00;99.90;;;;;;4990692;28;20920;-59
2022/05/11 02:38:03;;;;;;;16.70;15.30;;;14.90;99.90;;;;;;4988982;28;20440;-59
2022/05/11 02:40:32;;;;;;;16.93;15.43;;;14.90;99.90;;;;;;4984391;28;21010;-59
2022/05/11 02:43:01;;;;;;;16.47;15.07;;;15.10;99.90;;;;;;4987633;28;21734;-58
2022/05/11 02:45:27;;;;;;;16.13;14.73;;;15.00;99.90;;;;;;4986870;28;20439;-59
2022/05/11 02:47:54;;;;;;;16.30;14.93;;;14.90;99.90;;;;;;4988694;28;20838;-59
2022/05/11 02:50:27;;;;;;;16.60;15.20;;;15.00;99.90;;;;;;4989795;28;20474;-60
2022/05/11 02:52:54;;;;;;;17.33;15.93;;;14.90;99.90;;;;;;4986748;28;20526;-59
2022/05/11 02:55:20;;;;;;;15.80;14.47;;;14.90;99.90;;;;;;4973207;28;20968;-60
2022/05/11 02:57:46;;;;;;;15.90;14.70;;;15.00;99.90;;;;;;4983336;28;20557;-58
2022/05/11 03:00:14;;;;;;;17.00;15.50;;;15.00;99.90;;;;;;4990359;28;21196;-60
2022/05/11 03:02:39;;;;;;;17.40;15.90;;;15.00;99.90;;;;;;5003563;28;20470;-59
2022/05/11 03:05:06;;;;;;;16.20;14.90;;;15.00;99.90;;;;;;4981872;28;20471;-60
2022/05/11 03:07:32;;;;;;;15.67;14.27;;;15.10;99.90;;;;;;4989059;28;20215;-55
2022/05/11 03:09:57;;;;;;;16.40;15.10;;;15.00;99.90;;;;;;4979180;28;20419;-56
2022/05/11 03:12:23;;;;;;;15.80;14.50;;;15.00;99.90;;;;;;4986837;28;20451;-54
2022/05/11 03:14:50;;;;;;;16.40;14.90;;;15.00;99.90;;;;;;4983672;28;20200;-61
2022/05/11 03:17:16;;;;;;;15.93;14.63;;;15.00;99.90;;;;;;4989115;28;20192;-53
2022/05/11 03:19:42;;;;;;;16.63;15.33;;;15.00;99.90;;;;;;4989278;28;20443;-55
2022/05/11 03:22:09;;;;;;;16.20;14.90;;;15.00;99.90;;;;;;4989971;28;20778;-55
2022/05/11 03:24:35;;;;;;;15.97;14.67;;;15.10;99.90;;;;;;5002662;28;20443;-53
2022/05/11 03:27:00;;;;;;;16.40;15.10;;;15.10;99.90;;;;;;4986578;28;20441;-58
2022/05/11 03:29:26;;;;;;;16.10;14.50;;;15.10;99.90;;;;;;4984896;28;20194;-53
2022/05/11 03:34:36;;;;;;;16.37;15.03;;;15.30;99.90;;;;;;4986549;28;20191;-54
2022/05/11 03:37:07;;;;;;;16.40;15.00;;;15.30;99.90;;;;;;4986003;28;20439;-55
2022/05/11 03:39:32;;;;;;;16.70;15.20;;;15.40;99.90;;;;;;4975571;28;20185;-56
2022/05/11 03:41:58;;;;;;;17.10;15.70;;;15.40;99.90;;;;;;4972575;28;20459;-49
2022/05/11 03:44:24;;;;;;;16.10;14.70;;;15.50;99.90;;;;;;4986913;28;20439;-57
2022/05/11 03:46:49;;;;;;;15.80;14.50;;;15.50;99.90;;;;;;4986702;28;20188;-53
2022/05/11 03:49:15;;;;;;;15.43;14.23;;;15.50;99.90;;;;;;4988828;28;20196;-59
2022/05/11 03:51:40;;;;;;;16.27;14.97;;;15.60;99.90;;;;;;4988649;28;20195;-57
2022/05/11 03:54:06;;;;;;;16.23;15.00;;;15.60;99.90;;;;;;4978146;28;20239;-57
2022/05/11 03:56:32;;;;;;;16.00;14.70;;;15.60;99.90;;;;;;4984647;28;20244;-58
2022/05/11 03:58:58;;;;;;;16.00;14.50;;;15.70;99.90;;;;;;4989217;28;20197;-59
2022/05/11 04:01:23;;;;;;;15.00;13.80;;;15.70;99.90;;;;;;4984733;28;20444;-57
2022/05/11 04:03:49;;;;;;;15.60;14.40;;;15.70;99.90;;;;;;4980741;28;20733;-58
2022/05/11 04:06:15;;;;;;;15.40;14.20;;;15.80;99.90;;;;;;4986667;28;20236;-58
2022/05/11 04:08:42;;;;;;;15.70;14.50;;;15.90;99.90;;;;;;4988832;28;20471;-58
2022/05/11 04:11:08;;;;;;;15.87;14.50;;;15.90;99.90;;;;;;4986761;28;20207;-59
2022/05/11 04:13:33;;;;;;;15.30;14.10;;;15.90;99.90;;;;;;4980167;28;20470;-59
2022/05/11 04:15:59;;;;;;;15.80;14.60;;;16.00;99.90;;;;;;4986916;28;20443;-59
2022/05/11 04:18:25;;;;;;;15.60;14.37;;;16.00;99.90;;;;;;4979209;28;20192;-59
2022/05/11 04:20:50;;;;;;;14.83;13.63;;;16.00;99.90;;;;;;4981031;28;20200;-57
2022/05/11 04:23:17;;;;;;;15.80;14.50;;;16.10;99.90;;;;;;4978348;28;20217;-57
2022/05/11 04:25:42;;;;;;;15.43;14.07;;;16.20;99.90;;;;;;4979464;28;20200;-59
2022/05/11 04:28:13;;;;;;;16.00;14.60;;;16.20;99.90;;;;;;4980124;28;20445;-58
2022/05/11 04:30:40;;;;;;;16.53;15.23;;;16.20;99.90;;;;;;4980941;28;20192;-57
2022/05/11 04:33:06;;;;;;;15.10;13.90;;;16.20;99.90;;;;;;4978896;28;20476;-57
2022/05/11 04:35:34;;;;;;;15.47;13.97;;;16.30;99.90;;;;;;4979853;28;20437;-57
2022/05/11 04:38:01;;;;;;;15.30;14.10;;;16.40;99.90;;;;;;4977778;28;20784;-59
2022/05/11 04:40:27;;;;;;;15.50;14.30;;;16.40;99.90;;;;;;4984516;28;20417;-59
2022/05/11 04:42:53;;;;;;;15.23;14.03;;;16.60;99.90;;;;;;4987137;28;20464;-60
2022/05/11 04:45:19;;;;;;;14.47;13.27;;;16.70;99.90;;;;;;4989723;28;20791;-60
2022/05/11 04:47:45;;;;;;;15.17;13.97;;;16.70;99.90;;;;;;4990577;28;20194;-60
2022/05/11 04:50:12;;;;;;;15.53;14.27;;;16.70;99.90;;;;;;4992159;28;20890;-58
2022/05/11 04:52:38;;;;;;;15.30;14.10;;;16.80;99.90;;;;;;4992898;28;20237;-60
2022/05/11 04:55:06;;;;;;;15.50;14.30;;;16.80;99.90;;;;;;4991375;28;20474;-60
2022/05/11 04:57:33;;;;;;;15.30;14.00;;;17.00;99.90;;;;;;4991413;28;20445;-60
2022/05/11 04:59:58;;;;;;;14.70;13.60;;;17.10;99.90;;;;;;4992840;28;20561;-59
2022/05/11 05:02:27;;;;;;;14.97;13.67;;;17.20;99.90;;;;;;4991256;28;20476;-59
2022/05/11 05:04:58;;;;;;;16.73;15.03;;;17.30;99.90;;;;;;4992632;28;20221;-59
2022/05/11 05:07:24;;;;;;;14.70;13.50;;;17.40;99.90;;;;;;4991458;28;20432;-59
2022/05/11 05:09:50;;;;;;;14.87;13.57;;;17.50;99.90;;;;;;4992212;28;20992;-59
2022/05/11 05:12:15;;;;;;;14.70;13.50;;;17.60;99.90;;;;;;4991783;28;20535;-60
2022/05/11 05:14:44;;;;;;;15.03;13.87;;;17.70;99.90;;;;;;4988640;28;20247;-59
2022/05/11 05:17:12;;;;;;;15.60;14.40;;;17.70;99.90;;;;;;5007324;28;20650;-59
2022/05/11 05:19:40;;;;;;;15.33;14.17;;;17.80;99.90;;;;;;4990528;28;20530;-59
2022/05/11 05:22:06;;;;;;;15.00;13.70;;;17.80;99.90;;;;;;4992030;28;20485;-60
2022/05/11 05:24:32;;;;;;;15.27;14.07;;;17.80;99.90;;;;;;4987193;28;20527;-59
2022/05/11 05:26:59;;;;;;;16.23;14.60;;;17.80;99.90;;;;;;4990895;28;21114;-60
2022/05/11 05:32:10;;;;;;;15.33;14.13;;;18.00;99.90;;;;;;4986243;28;20407;-59
2022/05/11 05:34:36;;;;;;;15.80;14.50;;;18.20;99.90;;;;;;4991324;28;20961;-59
2022/05/11 05:37:01;;;;;;;15.60;14.30;;;18.20;99.90;;;;;;4991009;28;20732;-59
2022/05/11 05:39:27;;;;;;;15.00;13.80;;;18.20;99.90;;;;;;4980043;28;20916;-60
2022/05/11 05:41:52;;;;;;;14.27;13.17;;;18.30;99.90;;;;;;4984795;28;20615;-59
2022/05/11 05:44:19;;;;;;;15.47;14.27;;;18.50;99.90;;;;;;4978070;28;20623;-59
2022/05/11 05:46:45;;;;;;;14.90;13.70;;;18.50;99.90;;;;;;4991846;28;20188;-59
2022/05/11 05:49:12;;;;;;;15.00;13.63;;;18.70;99.90;;;;;;4990718;28;20450;-59
2022/05/11 05:51:38;;;;;;;14.43;13.33;;;18.80;99.90;;;;;;4990045;28;20436;-60
2022/05/11 05:54:03;;;;;;;15.53;14.23;;;19.00;99.90;;;;;;4991477;28;20446;-59
2022/05/11 05:56:29;;;;;;;15.07;13.97;;;19.10;99.90;;;;;;4989653;28;20490;-59
2022/05/11 05:59:00;;;;;;;14.80;13.70;;;19.30;99.90;;;;;;4986650;28;20193;-59
2022/05/11 06:01:26;;;;;;;14.90;13.50;;;19.50;99.90;;;;;;4983445;28;20191;-59
2022/05/11 06:03:51;;;;;;;14.93;13.67;;;19.60;99.90;;;;;;4971069;28;21977;-59
2022/05/11 06:06:19;;;;;;;14.40;13.10;;;19.70;99.90;;;;;;4991483;28;20652;-59
2022/05/11 06:08:45;;;;;;;14.73;13.50;;;19.70;99.90;;;;;;4991201;28;20422;-59
2022/05/11 06:11:11;;;;;;;14.37;13.27;;;19.70;99.90;;;;;;4989741;28;20427;-59
2022/05/11 06:13:38;;;;;;;14.07;12.97;;;19.80;99.80;;;;;;4988490;28;20562;-59
2022/05/11 06:16:13;;;;;;;15.43;13.83;;;19.90;99.60;;;;;;4971860;28;20209;-59
2022/05/11 06:18:41;;;;;;;13.77;12.70;;;20.00;99.90;;;;;;4971508;28;20458;-59
2022/05/11 06:21:07;;;;;;;14.30;13.20;;;20.00;99.30;;;;;;4984692;28;20467;-59
2022/05/11 06:23:33;;;;;;;15.00;13.90;;;20.10;99.20;;;;;;5005794;28;20478;-60
2022/05/11 06:25:58;;;;;;;13.43;12.40;;;20.20;99.20;;;;;;4989430;28;20906;-59
2022/05/11 06:28:24;;;;;;;13.90;12.90;;;20.50;99.10;;;;;;4990807;28;20185;-58
2022/05/11 06:30:49;;;;;;;13.67;12.67;;;20.70;98.40;;;;;;4987699;28;20188;-50
2022/05/11 06:33:15;;;;;;;14.33;13.23;;;20.70;97.80;;;;;;4989782;28;20738;-59
2022/05/11 06:35:40;;;;;;;13.10;12.20;;;20.70;98.40;;;;;;4990254;28;20197;-59
2022/05/11 06:38:08;;;;;;;13.60;12.60;;;20.80;98.60;;;;;;4989779;28;20275;-60
2022/05/11 06:40:34;;;;;;;14.47;13.07;;;21.10;97.70;;;;;;4985800;28;20199;-59
2022/05/11 06:43:01;;;;;;;13.70;12.70;;;21.10;97.30;;;;;;4989017;28;20464;-59
2022/05/11 06:45:27;;;;;;;13.00;12.10;;;21.30;97.40;;;;;;4989117;28;20189;-60
2022/05/11 06:47:53;;;;;;;12.67;11.67;;;21.60;96.70;;;;;;4989575;28;20911;-59
2022/05/11 06:50:19;;;;;;;12.83;11.77;;;21.80;95.50;;;;;;4989294;28;20422;-59
2022/05/11 06:52:44;;;;;;;13.60;12.50;;;21.90;95.50;;;;;;4989762;28;20476;-60
2022/05/11 07:00:39;;;;;;;12.23;11.43;;;22.60;94.50;;;;;;4989446;28;20473;-59
2022/05/11 07:03:05;;;;;;;12.10;11.23;;;22.90;94.30;;;;;;4987601;28;20474;-59
2022/05/11 07:05:35;;;;;;;13.43;12.13;;;23.10;92.80;;;;;;4982791;28;20193;-58
2022/05/11 07:08:00;;;;;;;12.80;11.90;;;23.30;92.90;;;;;;4983234;28;20193;-60
2022/05/11 07:10:26;;;;;;;12.53;11.53;;;23.50;92.00;;;;;;4987216;28;20928;-58
2022/05/11 07:12:51;;;;;;;11.77;10.90;;;23.60;91.30;;;;;;4987650;28;20203;-56
2022/05/11 07:15:21;;;;;;;13.30;12.17;;;23.80;90.20;;;;;;4988872;28;20188;-59
2022/05/11 07:17:49;;;;;;;12.30;11.37;;;23.80;89.50;;;;;;4988966;28;20191;-58
2022/05/11 07:20:36;;;;;;;12.20;11.40;;;23.80;90.00;;;;;;4989127;28;20443;-59
2022/05/11 07:23:03;;;;;;;14.13;10.33;;;23.90;88.50;;;;;;4988313;28;20451;-59
2022/05/11 07:25:29;;;;;;;12.03;11.23;;;23.90;87.60;;;;;;4980394;28;20468;-59
2022/05/11 07:27:57;;;;;;;12.80;12.00;;;24.10;87.60;;;;;;4977247;28;20998;-58
2022/05/11 07:30:30;;;;;;;12.60;11.73;;;24.20;85.70;;;;;;4981616;28;20424;-58
2022/05/11 07:32:56;;;;;;;11.93;11.00;;;24.30;82.60;;;;;;4984000;28;20530;-59
2022/05/11 07:35:23;;;;;;;11.80;10.90;;;24.10;82.80;;;;;;4989183;28;20536;-58
2022/05/11 07:37:49;;;;;;;12.30;11.40;;;24.30;82.40;;;;;;4984273;28;20425;-58
2022/05/11 07:40:16;;;;;;;12.67;11.57;;;24.50;82.20;;;;;;4989437;28;20463;-58
2022/05/11 07:42:43;;;;;;;12.47;11.57;;;24.60;81.10;;;;;;4989078;28;20464;-59
2022/05/11 07:45:10;;;;;;;12.90;11.93;;;24.70;81.00;;;;;;4989377;28;20560;-58
2022/05/11 07:47:36;;;;;;;11.23;10.43;;;24.90;80.20;;;;;;4989106;28;20920;-58
2022/05/11 07:50:02;;;;;;;12.30;11.40;;;25.00;74.90;;;;;;4989256;28;20466;-59
2022/05/11 07:52:27;;;;;;;10.67;9.87;;;25.10;76.70;;;;;;4988944;28;20751;-59
2022/05/11 07:54:53;;;;;;;10.33;9.63;;;25.10;71.40;;;;;;4986509;28;20192;-59
2022/05/11 08:00:06;;;;;;;10.70;9.90;;;25.00;70.70;;;;;;4980843;28;20555;-59
2022/05/11 08:02:34;;;;;;;10.37;9.33;;;24.80;69.00;;;;;;4987649;28;20481;-59
2022/05/11 08:05:05;;;;;;;10.30;9.63;;;24.60;70.00;;;;;;4988275;28;20498;-59
2022/05/11 08:07:39;;;;;;;9.87;9.27;;;24.60;71.20;;;;;;4988149;28;20412;-58
2022/05/11 08:10:06;;;;;;;11.27;10.37;;;24.40;70.50;;;;;;4988933;28;20407;-59
2022/05/11 08:12:31;;;;;;;10.03;9.43;;;24.20;69.40;;;;;;4989001;28;20426;-58
2022/05/11 08:14:57;;;;;;;10.00;9.10;;;24.30;70.40;;;;;;4992447;28;20423;-58
2022/05/11 08:17:32;;;;;;;9.93;9.23;;;24.40;70.70;;;;;;4991512;28;20616;-59
2022/05/11 08:19:59;;;;;;;9.43;8.83;;;24.50;69.70;;;;;;4988784;28;20222;-58
2022/05/11 08:22:26;;;;;;;10.17;8.67;;;24.60;68.10;;;;;;4976276;28;21037;-59
2022/05/11 08:24:52;;;;;;;9.83;8.57;;;24.70;65.60;;;;;;4973021;28;20421;-58
2022/05/11 08:27:20;;;;;;;10.40;9.50;;;24.80;66.20;;;;;;4972956;28;20724;-58
2022/05/11 08:35:16;;;;;;;9.70;9.10;;;24.90;99.90;;;;;;4992330;28;20500;-59
2022/05/11 08:37:42;;;;;;;9.40;8.80;;;25.00;99.90;;;;;;4988854;28;20438;-57
2022/05/11 08:40:32;;;;;;;8.60;8.03;;;24.90;99.90;;;;;;4990988;28;20949;-53
2022/05/11 08:42:57;;;;;;;10.10;9.30;;;24.90;99.90;;;;;;4987166;28;20479;-57
2022/05/11 08:45:37;;;;;;;9.03;8.43;;;25.10;99.90;;;;;;4989320;28;21032;-57
2022/05/11 08:48:08;;;;;;;9.17;8.37;;;25.30;99.90;;;;;;4984972;28;20165;-59
2022/05/11 08:50:36;;;;;;;9.00;8.30;;;25.70;99.90;;;;;;4989046;28;20431;-59
2022/05/11 08:53:06;;;;;;;9.37;8.70;;;25.90;99.90;;;;;;4988514;28;20429;-58
2022/05/11 08:55:41;;;;;;;9.40;8.80;;;26.00;99.90;;;;;;4991927;28;20888;-58
2022/05/11 08:58:21;;;;;;;9.47;8.67;;;26.30;99.90;;;;;;4990946;28;20475;-59
2022/05/11 09:00:48;;;;;;;9.03;8.43;;;26.50;99.90;;;;;;4987311;28;20449;-58
2022/05/11 09:03:34;;;;;;;9.50;8.90;;;26.70;99.90;;;;;;4987381;28;21294;-59
2022/05/11 09:06:06;;;;;;;9.70;9.10;;;26.60;99.90;;;;;;4991700;28;20428;-58
2022/05/11 09:08:37;;;;;;;9.40;8.60;;;26.50;99.90;;;;;;4980939;28;20443;-59
2022/05/11 09:11:10;;;;;;;9.53;8.93;;;26.50;99.90;;;;;;4973663;28;20431;-59
2022/05/11 09:13:39;;;;;;;8.10;7.60;;;26.90;99.90;;;;;;4973473;28;20659;-56
2022/05/11 09:16:06;;;;;;;8.87;8.37;;;27.60;99.90;;;;;;4990095;28;20917;-58
2022/05/11 09:18:31;;;;;;;9.67;9.07;;;27.90;99.90;;;;;;4991526;28;20921;-57
2022/05/11 09:21:03;;;;;;;8.63;8.03;;;27.50;99.90;;;;;;4989301;28;20427;-57
2022/05/11 09:23:37;;;;;;;7.87;7.20;;;27.60;99.90;;;;;;4991287;28;20202;-57
2022/05/11 09:26:07;;;;;;;9.30;8.80;;;28.00;99.90;;;;;;4989267;28;20426;-58
2022/05/11 09:28:35;;;;;;;8.43;7.93;;;28.70;99.90;;;;;;4991529;28;20558;-58
2022/05/11 09:31:03;;;;;;;8.53;8.07;;;28.90;99.90;;;;;;4979316;28;20483;-55
2022/05/11 09:33:37;;;;;;;8.80;8.30;;;29.20;99.90;;;;;;4978576;28;20867;-57
2022/05/11 09:36:03;;;;;;;10.27;9.67;;;29.50;99.90;;;;;;4989802;28;20440;-54
2022/05/11 09:38:43;;;;;;;10.03;9.03;;;29.90;99.90;;;;;;4990329;28;21020;-55
2022/05/11 09:41:17;;;;;;;8.70;8.10;;;30.30;99.90;;;;;;4973848;28;20651;-57
2022/05/11 09:43:46;;;;;;;8.73;8.23;;;30.30;99.90;;;;;;4972126;28;22589;-58
2022/05/11 09:46:26;;;;;;;8.60;8.10;;;30.60;99.90;;;;;;4990866;28;20415;-58
2022/05/11 09:49:14;;;;;;;9.30;8.60;;;30.80;99.90;;;;;;4989997;28;20759;-58
2022/05/11 09:51:43;;;;;;;8.80;8.20;;;30.90;99.90;;;;;;4990583;28;20918;-58
2022/05/11 09:54:32;;;;;;;9.13;8.63;;;31.50;99.90;;;;;;4990549;28;20446;-58
2022/05/11 09:57:03;;;;;;;7.87;7.47;;;31.60;99.90;;;;;;4990556;28;20479;-57
2022/05/11 09:59:32;;;;;;;7.93;7.30;;;32.00;99.90;;;;;;5004810;28;20435;-58
2022/05/11 10:02:17;;;;;;;8.47;8.03;;;31.70;99.90;;;;;;4990675;28;20427;-56
2022/05/11 10:04:59;;;;;;;8.80;8.20;;;31.50;99.90;;;;;;4989102;28;20427;-57
2022/05/11 10:07:28;;;;;;;8.87;8.13;;;31.60;99.90;;;;;;4979247;28;20435;-57
2022/05/11 10:10:01;;;;;;;9.53;9.03;;;31.20;99.90;;;;;;4971840;28;20428;-58
2022/05/11 10:12:29;;;;;;;9.60;9.10;;;30.80;99.90;;;;;;4990490;28;20926;-57
2022/05/11 10:23:30;;;;;;;8.77;8.17;;;33.10;99.90;;;;;;4989797;28;20466;-56
2022/05/11 10:26:05;;;;;;;9.43;8.93;;;33.30;99.90;;;;;;4988370;28;20435;-58
2022/05/11 10:28:33;;;;;;;8.13;7.67;;;33.10;99.90;;;;;;4990160;28;20457;-58
2022/05/11 10:31:34;;;;;;;8.67;8.07;;;32.20;99.90;;;;;;4987750;28;20848;-56
2022/05/11 10:34:13;;;;;;;8.63;7.80;;;32.00;99.90;;;;;;4990281;28;20415;-59
2022/05/11 10:36:51;;;;;;;8.70;8.20;;;31.20;99.90;;;;;;4989073;28;20522;-51
2022/05/11 10:39:54;;;;;;;8.83;8.23;;;31.60;99.90;;;;;;4971135;28;20459;-55
2022/05/11 10:42:33;;;;;;;8.80;8.20;;;30.60;99.90;;;;;;4983912;28;20442;-58
2022/05/11 10:45:26;;;;;;;8.93;8.33;;;30.40;99.90;;;;;;4989526;28;20952;-58
2022/05/11 10:47:58;;;;;;;7.90;7.50;;;30.50;99.90;;;;;;4986042;28;20439;-58
2022/05/11 10:50:44;;;;;;;8.73;8.23;;;30.20;99.90;;;;;;4989682;28;20419;-58
2022/05/11 10:53:20;;;;;;;9.33;8.73;;;30.00;99.90;;;;;;4989095;28;20437;-58
2022/05/11 10:55:59;;;;;;;8.40;7.90;;;29.90;99.90;;;;;;4989448;28;20484;-59
2022/05/11 10:58:43;;;;;;;8.63;8.13;;;30.10;99.90;;;;;;4989157;28;20522;-59
2022/05/11 11:01:15;;;;;;;9.43;8.93;;;30.60;99.90;;;;;;4989626;28;20432;-60
2022/05/11 11:04:15;;;;;;;8.63;8.13;;;30.80;99.90;;;;;;4988387;28;21307;-59
2022/05/11 11:07:12;;;;;;;8.23;7.80;;;30.50;99.90;;;;;;4983843;28;20429;-59
2022/05/11 11:09:58;;;;;;;8.37;7.77;;;30.80;99.90;;;;;;4987581;28;20450;-58
2022/05/11 11:13:01;;;;;;;8.20;7.80;;;31.20;99.90;;;;;;4989201;28;20442;-57
2022/05/11 11:15:32;;;;;;;8.53;7.93;;;32.00;99.90;;;;;;4989531;28;20411;-59
2022/05/11 11:17:59;;;;;;;8.87;8.27;;;32.30;99.90;;;;;;4989658;28;20447;-59
2022/05/11 11:20:26;;;;;;;8.53;8.07;;;32.10;99.90;;;;;;4989455;28;20881;-59
2022/05/11 11:23:12;;;;;;;8.03;7.53;;;32.10;99.90;;;;;;4988035;28;20985;-59
2022/05/11 11:25:45;;;;;;;8.50;7.93;;;32.60;99.90;;;;;;4988558;28;20427;-58
2022/05/11 11:28:14;;;;;;;8.90;8.50;;;32.90;99.90;;;;;;4989564;28;20416;-59
2022/05/11 11:31:12;;;;;;;9.03;8.53;;;32.80;99.90;;;;;;4988247;28;20459;-58
2022/05/11 11:34:03;;;;;;;8.90;8.40;;;32.50;99.90;;;;;;4991727;28;20493;-58
2022/05/11 11:36:33;;;;;;;7.73;7.23;;;32.40;99.90;;;;;;4985687;28;20435;-60
2022/05/11 11:39:02;;;;;;;8.57;7.87;;;31.70;99.90;;;;;;4988424;28;20465;-59
2022/05/11 11:41:30;;;;;;;7.83;7.43;;;31.70;99.90;;;;;;4986094;28;20411;-58
2022/05/11 11:44:30;;;;;;;9.63;8.80;;;31.60;99.90;;;;;;4987969;28;20467;-58
2022/05/11 11:46:57;;;;;;;8.73;8.20;;;31.70;99.90;;;;;;4986618;28;21158;-56
2022/05/11 11:49:26;;;;;;;7.93;7.33;;;31.70;99.90;;;;;;4989115;28;20466;-58
2022/05/11 11:51:53;;;;;;;8.13;7.63;;;32.10;99.90;;;;;;4992042;28;20800;-59
2022/05/11 11:54:37;;;;;;;7.50;7.10;;;33.00;99.90;;;;;;4989984;28;20432;-58
2022/05/11 11:57:20;;;;;;;8.03;7.43;;;33.40;99.90;;;;;;4991499;28;20474;-58
2022/05/11 11:59:51;;;;;;;7.73;7.33;;;32.60;99.90;;;;;;4991618;28;20759;-58
2022/05/11 12:02:40;;;;;;;8.53;8.00;;;31.90;99.90;;;;;;4989542;28;20439;-56
2022/05/11 12:05:08;;;;;;;8.30;7.80;;;31.50;99.90;;;;;;4991604;28;20427;-58
2022/05/11 12:16:17;;;;;;;8.47;7.87;;;32.90;99.90;;;;;;4992774;28;20827;-58
2022/05/11 12:18:43;;;;;;;8.37;7.97;;;33.10;99.90;;;;;;4993413;28;20430;-59
2022/05/11 12:21:32;;;;;;;8.60;8.10;;;33.30;99.90;;;;;;4992934;28;20451;-58
2022/05/11 12:24:04;;;;;;;9.80;9.20;;;32.80;99.90;;;;;;4991870;28;20546;-56
2022/05/11 12:26:35;;;;;;;8.33;7.90;;;32.40;99.90;;;;;;4977732;28;20422;-58
2022/05/11 12:31:57;;;;;;;9.17;8.67;;;32.10;99.90;;;;;;4979156;28;22297;-57
2022/05/11 12:34:24;;;;;;;8.23;7.83;;;32.40;99.90;;;;;;4991175;28;20443;-57
2022/05/11 12:36:52;;;;;;;8.33;7.83;;;32.40;99.90;;;;;;4992634;28;20451;-59
2022/05/11 12:39:32;;;;;;;10.87;10.10;;;32.00;99.90;;;;;;4992393;28;20439;-58
2022/05/11 12:41:58;;;;;;;8.83;8.23;;;32.30;99.90;;;;;;4992602;28;20425;-57
2022/05/11 12:44:30;;;;;;;7.60;7.20;;;32.40;99.90;;;;;;4991985;28;20962;-58
2022/05/11 12:46:59;;;;;;;8.90;8.40;;;32.70;99.90;;;;;;4992853;28;20180;-58
2022/05/11 12:49:26;;;;;;;8.20;7.70;;;32.70;99.90;;;;;;4992803;28;20428;-58
2022/05/11 12:52:03;;;;;;;7.87;7.27;;;32.10;99.90;;;;;;4992785;28;20506;-58
2022/05/11 12:54:31;;;;;;;8.77;8.27;;;31.70;99.90;;;;;;4992821;28;21236;-59
2022/05/11 12:57:15;;;;;;;7.83;7.20;;;31.70;99.90;;;;;;4992223;28;21184;-58
2022/05/11 12:59:57;;;;;;;8.57;8.17;;;32.30;99.90;;;;;;4991783;28;20921;-58
2022/05/11 13:02:33;;;;;;;8.30;7.20;;;32.90;99.90;;;;;;4992799;28;20487;-58
2022/05/11 13:05:05;;;;;;;7.80;7.40;;;32.30;99.90;;;;;;4980683;28;20458;-59
2022/05/11 13:07:47;;;;;;;8.60;7.90;;;32.50;99.90;;;;;;4973118;28;20443;-58
2022/05/11 13:10:17;;;;;;;7.70;7.00;;;33.40;99.90;;;;;;4987393;28;20489;-57
2022/05/11 13:12:49;;;;;;;7.60;7.20;;;33.40;99.90;;;;;;4993846;28;20474;-58
2022/05/11 13:15:34;;;;;;;7.90;7.33;;;33.40;99.90;;;;;;4992173;28;20538;-58
2022/05/11 13:18:00;;;;;;;7.07;6.67;;;33.50;99.90;;;;;;4994067;28;20415;-53
2022/05/11 13:20:28;;;;;;;8.20;7.77;;;33.60;99.90;;;;;;4993670;28;20863;-58
2022/05/11 13:23:00;;;;;;;7.83;7.20;;;32.80;99.90;;;;;;4993431;28;20216;-58
2022/05/11 13:25:42;;;;;;;7.53;7.00;;;32.40;99.90;;;;;;4993676;28;20902;-58
2022/05/11 13:28:31;;;;;;;7.67;7.07;;;32.90;99.90;;;;;;4993609;28;20439;-58
2022/05/11 13:31:18;;;;;;;7.87;7.37;;;33.20;99.90;;;;;;4991611;28;20524;-55
2022/05/11 13:33:45;;;;;;;8.07;7.43;;;33.70;99.90;;;;;;4994031;28;20450;-57